Time;durP1;ratioP1;P1;durP2;ratioP2;P2;SDS_P1;SDS_P2;PMS_P1;PMS_P2;Temp;Humidity;BMP_temperature;BMP_pressure;BME280_temperature;BME280_humidity;BME280_pressure;Samples;Min_cycle;Max_cycle;Signal;HPM_P1;HPM_P2
2021/12/21 00:01:07;;;;;;;14.90;6.10;;;-1.20;99.90;;;;;;5013245;28;21028;-72
2021/12/21 00:03:34;;;;;;;12.60;6.17;;;-1.20;99.90;;;;;;5014046;28;20474;-74
2021/12/21 00:06:01;;;;;;;11.00;5.20;;;-1.20;99.90;;;;;;5014185;28;20454;-71
2021/12/21 00:08:29;;;;;;;12.43;5.80;;;-1.20;99.90;;;;;;5013637;28;20453;-74
2021/12/21 00:10:57;;;;;;;11.63;5.20;;;-1.20;99.90;;;;;;5013283;28;20461;-73
2021/12/21 00:13:38;;;;;;;15.10;5.67;;;-1.20;99.90;;;;;;5012855;28;20478;-73
2021/12/21 00:16:14;;;;;;;12.03;4.87;;;-1.20;99.90;;;;;;5007190;28;20494;-71
2021/12/21 00:18:46;;;;;;;8.80;5.27;;;-1.20;99.90;;;;;;5011730;28;20537;-71
2021/12/21 00:21:23;;;;;;;9.63;5.13;;;-1.20;99.90;;;;;;5013096;28;20455;-72
2021/12/21 00:23:58;;;;;;;10.50;5.83;;;-1.30;99.90;;;;;;4993593;28;20573;-72
2021/12/21 00:26:24;;;;;;;10.60;5.17;;;-1.30;99.90;;;;;;4997271;28;20540;-72
2021/12/21 00:28:56;;;;;;;12.03;5.57;;;-1.30;99.90;;;;;;5012740;28;20528;-71
2021/12/21 00:31:24;;;;;;;11.93;5.83;;;-1.30;99.90;;;;;;5012450;28;20537;-72
2021/12/21 00:33:51;;;;;;;7.63;5.20;;;-1.30;99.90;;;;;;5013240;28;20961;-71
2021/12/21 00:36:20;;;;;;;16.63;4.90;;;-1.30;99.90;;;;;;5011902;28;20450;-72
2021/12/21 00:38:48;;;;;;;9.00;5.17;;;-1.40;99.90;;;;;;5013276;28;20454;-71
2021/12/21 00:41:17;;;;;;;8.40;5.17;;;-1.40;99.90;;;;;;5013256;28;20504;-72
2021/12/21 00:43:44;;;;;;;10.43;5.47;;;-1.50;99.90;;;;;;5012185;28;20482;-71
2021/12/21 00:46:11;;;;;;;17.73;5.67;;;-1.50;99.90;;;;;;5012177;28;20481;-71
2021/12/21 00:48:47;;;;;;;8.97;4.80;;;-1.50;99.90;;;;;;5012915;28;20458;-72
2021/12/21 00:51:13;;;;;;;11.20;5.23;;;-1.50;99.90;;;;;;5012272;28;20482;-71
2021/12/21 00:53:40;;;;;;;14.80;5.40;;;-1.40;99.90;;;;;;5013194;28;20546;-72
2021/12/21 00:56:07;;;;;;;12.70;4.97;;;-1.60;99.90;;;;;;5012959;28;20449;-71
2021/12/21 00:58:35;;;;;;;21.60;6.17;;;-1.60;99.90;;;;;;5012476;28;20458;-71
2021/12/21 01:01:04;;;;;;;10.60;5.00;;;-1.60;99.90;;;;;;5012011;28;20505;-71
2021/12/21 01:03:31;;;;;;;11.50;5.77;;;-1.60;99.90;;;;;;5012942;28;20485;-71
2021/12/21 01:06:06;;;;;;;8.57;4.97;;;-1.60;99.90;;;;;;5012140;28;20524;-71
2021/12/21 01:08:44;;;;;;;10.97;5.63;;;-1.60;99.90;;;;;;5013165;28;20536;-71
2021/12/21 01:11:15;;;;;;;9.10;5.33;;;-1.60;99.90;;;;;;5001939;28;20463;-71
2021/12/21 01:13:59;;;;;;;6.50;5.10;;;-1.70;99.90;;;;;;5007236;28;20481;-71
2021/12/21 01:16:34;;;;;;;7.20;5.10;;;-1.70;99.90;;;;;;5011182;28;20841;-72
2021/12/21 01:19:10;;;;;;;14.00;5.90;;;-1.80;99.90;;;;;;5009796;28;20458;-72
2021/12/21 01:21:42;;;;;;;16.33;6.20;;;-1.80;99.90;;;;;;5012658;28;20553;-72
2021/12/21 01:24:28;;;;;;;16.77;5.10;;;-1.60;99.90;;;;;;5012330;28;20526;-71
2021/12/21 01:27:09;;;;;;;12.80;5.10;;;-1.70;99.90;;;;;;5012726;28;20457;-71
2021/12/21 01:29:46;;;;;;;10.70;5.03;;;-1.80;99.90;;;;;;5006651;28;20469;-72
2021/12/21 01:32:20;;;;;;;9.43;5.10;;;-1.80;99.90;;;;;;5010442;28;20465;-71
2021/12/21 01:34:57;;;;;;;10.77;4.70;;;-1.80;99.90;;;;;;5011991;28;20484;-71
2021/12/21 01:37:30;;;;;;;12.70;5.27;;;-1.80;99.90;;;;;;5011917;28;20832;-72
2021/12/21 01:40:13;;;;;;;6.70;4.80;;;-1.80;99.90;;;;;;5012328;28;20512;-72
2021/12/21 01:42:53;;;;;;;11.50;5.43;;;-1.80;99.90;;;;;;5012187;28;20568;-72
2021/12/21 01:50:54;;;;;;;14.90;5.00;;;-1.80;99.90;;;;;;5011855;28;20453;-72
2021/12/21 01:53:20;;;;;;;12.20;4.97;;;-1.80;99.90;;;;;;5012170;28;20958;-72
2021/12/21 01:55:48;;;;;;;10.63;5.83;;;-1.80;99.90;;;;;;5012079;28;20454;-72
2021/12/21 01:58:15;;;;;;;18.30;5.70;;;-1.90;99.90;;;;;;5011756;28;20517;-71
2021/12/21 02:00:44;;;;;;;16.27;5.90;;;-1.80;99.90;;;;;;5012015;28;20500;-72
2021/12/21 02:03:10;;;;;;;9.87;5.67;;;-1.90;99.90;;;;;;5014134;28;20473;-72
2021/12/21 02:05:38;;;;;;;9.33;4.93;;;-1.90;99.90;;;;;;5015846;28;20580;-72
2021/12/21 02:08:06;;;;;;;14.53;5.53;;;-2.00;99.90;;;;;;5015502;28;20864;-72
2021/12/21 02:10:33;;;;;;;10.57;5.20;;;-2.00;99.90;;;;;;5015546;28;20459;-72
2021/12/21 02:13:00;;;;;;;9.70;5.00;;;-2.00;99.90;;;;;;5015756;28;20529;-72
2021/12/21 02:15:27;;;;;;;21.07;6.20;;;-2.00;99.90;;;;;;5014969;28;20474;-72
2021/12/21 02:18:31;;;;;;;9.47;5.37;;;-2.00;99.90;;;;;;5014254;28;20873;-72
2021/12/21 02:21:04;;;;;;;12.33;6.10;;;-2.00;99.90;;;;;;5015667;28;20455;-71
2021/12/21 02:23:34;;;;;;;9.60;5.17;;;-2.00;99.90;;;;;;5015274;28;20496;-72
2021/12/21 02:29:14;;;;;;;10.37;5.43;;;-2.10;99.90;;;;;;5012416;28;20449;-72
2021/12/21 02:31:43;;;;;;;8.30;5.20;;;-2.10;99.90;;;;;;5015135;28;20457;-72
2021/12/21 02:34:10;;;;;;;14.73;6.20;;;-2.10;99.90;;;;;;5014551;28;20462;-72
2021/12/21 02:36:39;;;;;;;17.20;6.30;;;-2.10;99.90;;;;;;5014239;28;20446;-71
2021/12/21 02:39:07;;;;;;;15.17;5.90;;;-2.10;99.90;;;;;;5014585;28;20497;-71
2021/12/21 02:41:34;;;;;;;13.10;5.93;;;-2.10;99.90;;;;;;5015608;28;20458;-71
2021/12/21 02:44:01;;;;;;;16.93;6.20;;;-2.20;99.90;;;;;;5015256;28;20470;-71
2021/12/21 02:46:28;;;;;;;10.37;6.30;;;-2.20;99.90;;;;;;5014409;28;20489;-71
2021/12/21 02:48:56;;;;;;;11.07;5.97;;;-2.30;99.90;;;;;;5014997;28;20462;-71
2021/12/21 02:51:23;;;;;;;10.60;5.77;;;-2.30;99.90;;;;;;5014654;28;20454;-71
2021/12/21 02:53:51;;;;;;;18.93;6.23;;;-2.30;99.90;;;;;;5014353;28;20478;-71
2021/12/21 02:56:18;;;;;;;10.37;6.03;;;-2.30;99.90;;;;;;5014600;28;20447;-71
2021/12/21 02:58:45;;;;;;;12.80;6.60;;;-2.30;99.90;;;;;;5014492;28;20537;-71
2021/12/21 03:01:12;;;;;;;11.30;6.47;;;-2.30;99.90;;;;;;5014102;28;20476;-71
2021/12/21 03:03:39;;;;;;;15.03;5.77;;;-2.40;99.90;;;;;;5014169;28;20478;-71
2021/12/21 03:06:11;;;;;;;18.60;6.50;;;-2.40;99.90;;;;;;5013714;28;20493;-71
2021/12/21 03:08:41;;;;;;;13.30;5.63;;;-2.30;99.90;;;;;;5014485;28;20497;-71
2021/12/21 03:11:16;;;;;;;12.37;5.70;;;-2.40;99.90;;;;;;5014695;28;20458;-71
2021/12/21 03:14:03;;;;;;;12.87;5.20;;;-2.40;99.90;;;;;;5014676;28;21023;-71
2021/12/21 03:16:31;;;;;;;11.07;6.13;;;-2.40;99.90;;;;;;5013866;28;20459;-72
2021/12/21 03:18:59;;;;;;;12.93;5.57;;;-2.40;99.90;;;;;;4995159;28;20970;-71
2021/12/21 03:21:26;;;;;;;9.43;6.00;;;-2.50;99.90;;;;;;5006952;28;20485;-71
2021/12/21 03:23:53;;;;;;;10.50;5.30;;;-2.40;99.90;;;;;;5014447;28;20470;-71
2021/12/21 03:26:21;;;;;;;7.83;5.93;;;-2.40;99.90;;;;;;5014303;28;21156;-71
2021/12/21 03:28:47;;;;;;;15.17;6.33;;;-2.50;99.90;;;;;;5014551;28;20450;-71
2021/12/21 03:31:14;;;;;;;9.00;5.87;;;-2.50;99.90;;;;;;5013728;28;20946;-71
2021/12/21 03:33:42;;;;;;;12.83;6.00;;;-2.50;99.90;;;;;;5014386;28;20539;-71
2021/12/21 03:36:09;;;;;;;10.30;5.80;;;-2.50;99.90;;;;;;5013083;28;20855;-71
2021/12/21 03:38:38;;;;;;;11.07;6.23;;;-2.50;99.90;;;;;;5014205;28;20508;-71
2021/12/21 03:41:09;;;;;;;12.60;5.90;;;-2.60;99.90;;;;;;5013502;28;20453;-71
2021/12/21 03:43:37;;;;;;;10.77;5.57;;;-2.60;99.90;;;;;;5013959;28;20573;-71
2021/12/21 03:46:09;;;;;;;10.63;5.90;;;-2.50;99.90;;;;;;5012662;28;20482;-71
2021/12/21 03:48:36;;;;;;;14.10;5.97;;;-2.60;99.90;;;;;;5013603;28;20464;-71
2021/12/21 03:51:03;;;;;;;9.07;5.73;;;-2.70;99.90;;;;;;5000278;28;20509;-71
2021/12/21 03:53:30;;;;;;;13.90;6.67;;;-2.60;99.90;;;;;;5012241;28;20482;-71
2021/12/21 03:56:11;;;;;;;12.87;6.40;;;-2.60;99.90;;;;;;5013418;28;20505;-71
2021/12/21 03:58:39;;;;;;;11.70;6.30;;;-2.50;99.90;;;;;;5013626;28;20555;-71
2021/12/21 04:01:05;;;;;;;10.73;5.30;;;-2.70;99.90;;;;;;5013380;28;20458;-71
2021/12/21 04:03:32;;;;;;;10.63;6.27;;;-2.70;99.90;;;;;;5013404;28;20485;-71
2021/12/21 04:05:59;;;;;;;12.83;5.93;;;-2.70;99.90;;;;;;5012847;28;20490;-71
2021/12/21 04:08:26;;;;;;;8.73;5.10;;;-2.70;99.90;;;;;;5013262;28;20485;-71
2021/12/21 04:10:52;;;;;;;8.63;5.27;;;-2.70;99.90;;;;;;5012743;28;20888;-71
2021/12/21 04:13:19;;;;;;;10.37;6.07;;;-2.70;99.90;;;;;;4995905;28;20443;-71
2021/12/21 04:15:52;;;;;;;11.20;5.50;;;-2.70;99.90;;;;;;5009554;28;20451;-71
2021/12/21 04:18:20;;;;;;;12.13;6.00;;;-2.60;99.90;;;;;;5007705;28;20454;-71
2021/12/21 04:20:47;;;;;;;13.50;6.10;;;-2.70;99.90;;;;;;5012743;28;20455;-71
2021/12/21 04:23:14;;;;;;;14.07;5.47;;;-2.70;99.90;;;;;;5012231;28;20943;-71
2021/12/21 04:25:41;;;;;;;9.77;5.60;;;-2.70;99.90;;;;;;5011640;28;20490;-71
2021/12/21 04:28:07;;;;;;;14.37;5.63;;;-2.70;99.90;;;;;;5012502;28;20673;-71
2021/12/21 04:30:34;;;;;;;10.70;5.30;;;-2.80;99.90;;;;;;5012558;28;20481;-71
2021/12/21 04:33:02;;;;;;;15.43;6.27;;;-2.80;99.90;;;;;;5012416;28;20458;-72
2021/12/21 04:35:29;;;;;;;10.30;6.23;;;-2.80;99.90;;;;;;5010297;28;20442;-71
2021/12/21 04:38:00;;;;;;;9.60;6.20;;;-2.70;99.90;;;;;;5013196;28;20450;-71
2021/12/21 04:40:39;;;;;;;14.87;6.83;;;-2.80;99.90;;;;;;5012467;28;20513;-71
2021/12/21 04:43:06;;;;;;;14.00;6.40;;;-2.80;99.90;;;;;;5013331;28;20458;-71
2021/12/21 04:45:33;;;;;;;12.53;6.10;;;-2.90;99.90;;;;;;5011729;28;20486;-71
2021/12/21 04:48:01;;;;;;;17.23;7.00;;;-2.80;99.90;;;;;;5013091;28;20515;-71
2021/12/21 04:50:28;;;;;;;11.40;6.03;;;-2.80;99.90;;;;;;5012526;28;20868;-72
2021/12/21 04:52:55;;;;;;;18.63;6.90;;;-2.80;99.90;;;;;;5012796;28;20504;-71
2021/12/21 05:00:48;;;;;;;18.13;7.20;;;-2.90;99.90;;;;;;5032232;28;20466;-92
2021/12/21 05:08:33;;;;;;;13.43;5.87;;;-2.90;99.90;;;;;;5053971;22;20874;-71
2021/12/21 05:11:03;;;;;;;14.83;7.07;;;-2.90;99.90;;;;;;5031714;28;20453;-71
2021/12/21 05:13:31;;;;;;;8.30;6.00;;;-2.90;99.90;;;;;;5031264;28;20522;-71
2021/12/21 05:15:59;;;;;;;14.67;6.53;;;-3.00;99.90;;;;;;5011137;28;20472;-71
2021/12/21 05:18:27;;;;;;;16.23;6.90;;;-3.00;99.90;;;;;;5010828;28;20457;-71
2021/12/21 05:20:54;;;;;;;19.07;6.17;;;-3.00;99.90;;;;;;5011740;28;21001;-73
2021/12/21 05:23:21;;;;;;;17.20;7.60;;;-2.90;99.90;;;;;;5011383;28;21012;-72
2021/12/21 05:25:48;;;;;;;12.83;6.80;;;-3.00;99.90;;;;;;5011082;28;20494;-72
2021/12/21 05:28:16;;;;;;;11.93;6.00;;;-3.10;99.90;;;;;;5011404;28;20450;-72
2021/12/21 05:30:43;;;;;;;11.40;5.67;;;-3.10;99.90;;;;;;5011226;28;20520;-73
2021/12/21 05:33:10;;;;;;;14.67;6.40;;;-3.10;99.90;;;;;;5010996;28;20458;-73
2021/12/21 05:35:38;;;;;;;13.47;7.37;;;-3.10;99.90;;;;;;5010541;28;20886;-72
2021/12/21 05:38:08;;;;;;;14.80;7.30;;;-3.10;99.90;;;;;;5012760;28;20465;-72
2021/12/21 05:40:38;;;;;;;15.73;7.23;;;-3.10;99.90;;;;;;5015374;28;20462;-72
2021/12/21 05:43:05;;;;;;;13.50;7.20;;;-3.10;99.90;;;;;;5015566;28;20460;-72
2021/12/21 05:45:32;;;;;;;10.53;6.33;;;-3.10;99.90;;;;;;5013584;28;20974;-72
2021/12/21 05:47:59;;;;;;;16.80;7.40;;;-3.20;99.90;;;;;;5015177;28;20457;-72
2021/12/21 05:50:26;;;;;;;16.90;6.60;;;-3.20;99.90;;;;;;5014909;28;20454;-72
2021/12/21 05:52:54;;;;;;;15.90;7.70;;;-3.20;99.90;;;;;;5015029;28;20520;-72
2021/12/21 05:55:22;;;;;;;20.83;6.77;;;-3.20;99.90;;;;;;5006088;28;20475;-72
2021/12/21 05:57:49;;;;;;;16.53;7.03;;;-3.20;99.90;;;;;;5014914;28;20529;-72
2021/12/21 06:00:19;;;;;;;10.87;6.90;;;-3.30;99.90;;;;;;5014424;28;20954;-72
2021/12/21 06:02:46;;;;;;;13.90;8.07;;;-3.30;99.90;;;;;;5014788;28;20450;-72
2021/12/21 06:05:13;;;;;;;10.93;6.43;;;-3.30;99.90;;;;;;5014368;28;20470;-72
2021/12/21 06:07:39;;;;;;;16.40;7.83;;;-3.30;99.90;;;;;;5014743;28;20841;-72
2021/12/21 06:10:13;;;;;;;19.00;7.30;;;-3.20;99.90;;;;;;5014658;28;20805;-72
2021/12/21 06:12:58;;;;;;;19.30;7.40;;;-3.20;99.90;;;;;;5014542;28;20497;-72
2021/12/21 06:15:34;;;;;;;13.57;8.00;;;-3.30;99.90;;;;;;5013786;28;20536;-72
2021/12/21 06:24:11;;;;;;;15.10;7.37;;;-3.30;99.90;;;;;;5013682;28;20453;-72
2021/12/21 06:26:32;;;;;;;15.23;7.60;;;-3.30;99.90;;;;;;5013497;28;20986;-73
2021/12/21 06:28:59;;;;;;;15.00;8.30;;;-3.20;99.90;;;;;;5013831;28;20489;-72
2021/12/21 06:31:26;;;;;;;16.67;7.73;;;-3.30;99.90;;;;;;5013993;28;20457;-73
2021/12/21 06:33:53;;;;;;;13.53;7.30;;;-3.30;99.90;;;;;;5012946;28;20524;-72
2021/12/21 06:36:21;;;;;;;13.23;7.73;;;-3.20;99.90;;;;;;5013465;28;20446;-72
2021/12/21 06:38:47;;;;;;;18.57;8.00;;;-3.30;99.90;;;;;;5014371;28;20461;-72
2021/12/21 06:41:15;;;;;;;16.07;8.43;;;-3.30;99.90;;;;;;5014560;28;20447;-72
2021/12/21 06:43:43;;;;;;;16.93;8.00;;;-3.30;99.90;;;;;;5003230;28;20455;-73
2021/12/21 06:46:17;;;;;;;12.50;7.47;;;-3.30;99.90;;;;;;5012589;28;20482;-73
2021/12/21 06:51:35;;;;;;;20.43;7.33;;;-3.30;99.90;;;;;;4997380;28;20868;-73
2021/12/21 06:54:01;;;;;;;20.37;7.60;;;-3.30;99.90;;;;;;5014349;28;20577;-72
2021/12/21 06:56:29;;;;;;;14.77;7.60;;;-3.30;99.90;;;;;;5014324;28;20986;-72
2021/12/21 06:58:57;;;;;;;17.53;7.53;;;-3.30;99.90;;;;;;5000184;28;20455;-72
2021/12/21 07:01:26;;;;;;;12.63;7.00;;;-3.30;99.90;;;;;;5013126;28;20950;-74
2021/12/21 07:03:52;;;;;;;11.43;7.70;;;-3.40;99.90;;;;;;4998289;28;20455;-75
2021/12/21 07:06:20;;;;;;;16.70;7.80;;;-3.40;99.90;;;;;;5022919;28;20493;-74
2021/12/21 07:08:53;;;;;;;15.73;8.30;;;-3.30;99.90;;;;;;5030069;28;20505;-74
2021/12/21 07:11:26;;;;;;;25.00;8.60;;;-3.30;99.90;;;;;;5001275;28;20463;-74
2021/12/21 07:19:23;;;;;;;11.80;8.10;;;-3.40;99.90;;;;;;5012169;28;20465;-74
2021/12/21 07:21:50;;;;;;;17.60;8.20;;;-3.40;99.90;;;;;;5012702;28;20458;-75
2021/12/21 07:24:16;;;;;;;15.40;9.37;;;-3.40;99.90;;;;;;5000514;28;20470;-75
2021/12/21 07:26:43;;;;;;;20.17;8.40;;;-3.40;99.90;;;;;;5012357;28;20482;-75
2021/12/21 07:29:10;;;;;;;20.13;8.07;;;-3.30;99.90;;;;;;5013380;28;21023;-75
2021/12/21 07:31:38;;;;;;;14.87;8.00;;;-3.40;99.90;;;;;;5010768;28;20470;-73
2021/12/21 07:34:05;;;;;;;15.87;8.17;;;-3.20;99.90;;;;;;5011615;28;20467;-73
2021/12/21 07:36:34;;;;;;;17.20;9.10;;;-2.60;99.90;;;;;;5011164;28;20463;-73
2021/12/21 07:39:04;;;;;;;16.90;9.23;;;-1.90;99.90;;;;;;5011738;28;20470;-73
2021/12/21 07:41:30;;;;;;;17.90;8.77;;;-1.10;99.90;;;;;;5011527;28;20458;-74
2021/12/21 07:43:57;;;;;;;17.63;8.05;;;-0.70;99.90;;;;;;5000322;28;20452;-77
2021/12/21 07:46:24;;;;;;;17.70;7.70;;;-0.70;99.90;;;;;;5005860;28;20218;-77
2021/12/21 07:48:52;;;;;;;15.57;8.00;;;-1.00;99.90;;;;;;5011350;28;20782;-77
2021/12/21 07:51:19;;;;;;;21.93;8.90;;;-1.40;99.90;;;;;;5010787;28;20485;-77
2021/12/21 07:53:47;;;;;;;16.53;9.20;;;-1.70;99.90;;;;;;5011222;28;21159;-77
2021/12/21 07:56:16;;;;;;;16.77;8.60;;;-2.00;99.90;;;;;;5011054;28;20447;-77
2021/12/21 07:58:44;;;;;;;18.90;8.50;;;-2.20;99.90;;;;;;4999145;28;20461;-77
2021/12/21 08:01:12;;;;;;;20.90;8.00;;;-2.40;99.90;;;;;;5001041;28;20958;-77
2021/12/21 08:03:39;;;;;;;14.07;7.63;;;-2.50;99.90;;;;;;5011726;28;20582;-76
2021/12/21 08:06:12;;;;;;;15.53;8.00;;;-2.60;99.90;;;;;;5010801;28;20439;-77
2021/12/21 08:08:42;;;;;;;18.70;8.93;;;-2.70;99.90;;;;;;5012368;28;20508;-77
2021/12/21 08:11:12;;;;;;;16.33;8.40;;;-2.70;99.90;;;;;;5008917;28;20458;-77
2021/12/21 08:13:41;;;;;;;27.03;8.63;;;-2.70;99.90;;;;;;5010900;28;20450;-77
2021/12/21 08:16:08;;;;;;;24.73;8.80;;;-2.80;99.90;;;;;;5003157;28;20975;-77
2021/12/21 08:18:35;;;;;;;21.13;9.23;;;-2.80;99.90;;;;;;5002556;28;20493;-77
2021/12/21 08:21:02;;;;;;;15.47;8.00;;;-2.80;99.90;;;;;;4995524;28;20498;-76
2021/12/21 08:23:30;;;;;;;19.70;8.40;;;-2.80;99.90;;;;;;5009851;28;20466;-77
2021/12/21 08:25:57;;;;;;;11.70;8.00;;;-2.70;99.90;;;;;;5006385;28;20470;-76
2021/12/21 08:28:25;;;;;;;18.50;8.57;;;-2.60;99.90;;;;;;5011565;28;20483;-76
2021/12/21 08:30:51;;;;;;;19.87;9.67;;;-2.00;99.90;;;;;;5009686;28;20960;-76
2021/12/21 08:33:18;;;;;;;24.47;9.77;;;-1.40;99.90;;;;;;5011576;28;20954;-76
2021/12/21 08:35:46;;;;;;;17.40;9.43;;;-0.60;99.90;;;;;;5011260;28;20478;-76
2021/12/21 08:38:15;;;;;;;21.10;8.60;;;0.00;99.90;;;;;;5010809;28;20454;-76
2021/12/21 08:40:49;;;;;;;24.47;10.00;;;0.20;99.90;;;;;;5011015;28;20489;-77
2021/12/21 08:43:19;;;;;;;16.60;8.53;;;0.40;99.90;;;;;;5008884;28;20877;-76
2021/12/21 08:45:47;;;;;;;21.40;9.53;;;0.40;99.90;;;;;;5017646;28;21129;-76
2021/12/21 08:48:15;;;;;;;14.27;8.70;;;0.50;99.90;;;;;;5011599;28;20490;-76
2021/12/21 08:50:43;;;;;;;32.03;10.60;;;0.40;99.90;;;;;;5009394;28;20455;-76
2021/12/21 08:53:09;;;;;;;16.90;9.13;;;0.40;99.90;;;;;;5010656;28;20451;-76
2021/12/21 08:55:36;;;;;;;19.00;8.93;;;0.40;99.90;;;;;;5010956;28;20474;-76
2021/12/21 08:58:04;;;;;;;16.17;8.87;;;0.40;99.90;;;;;;5006253;28;20458;-76
2021/12/21 09:00:31;;;;;;;15.57;8.70;;;0.20;99.90;;;;;;4996773;28;20451;-76
2021/12/21 09:02:57;;;;;;;12.20;8.87;;;0.20;99.90;;;;;;5010028;28;20505;-76
2021/12/21 09:05:27;;;;;;;21.67;8.90;;;0.20;99.90;;;;;;5011011;28;20867;-77
2021/12/21 09:07:55;;;;;;;15.20;8.30;;;0.30;99.90;;;;;;5011190;28;20517;-76
2021/12/21 09:10:23;;;;;;;25.87;10.20;;;0.50;99.90;;;;;;5004724;28;20493;-76
2021/12/21 09:12:51;;;;;;;16.47;8.70;;;0.40;99.90;;;;;;5008871;28;20893;-77
2021/12/21 09:15:20;;;;;;;21.67;9.10;;;0.40;99.90;;;;;;5007720;28;20474;-76
2021/12/21 09:17:48;;;;;;;14.87;7.93;;;0.40;99.90;;;;;;5011468;28;20457;-77
2021/12/21 09:20:18;;;;;;;15.27;8.73;;;0.40;99.90;;;;;;5010519;28;20821;-77
2021/12/21 09:22:45;;;;;;;17.20;9.40;;;0.10;99.90;;;;;;5011355;28;20504;-76
2021/12/21 09:25:12;;;;;;;19.93;9.67;;;0.00;99.90;;;;;;5002136;28;20504;-77
2021/12/21 09:27:40;;;;;;;17.40;8.43;;;-0.10;99.90;;;;;;5010431;28;20485;-78
2021/12/21 09:30:09;;;;;;;16.83;8.87;;;-0.20;99.90;;;;;;5000273;28;20459;-76
2021/12/21 09:32:38;;;;;;;16.83;8.67;;;-0.20;99.90;;;;;;4991938;28;20462;-76
2021/12/21 09:35:06;;;;;;;18.10;8.53;;;-0.10;99.90;;;;;;4991644;28;20483;-76
2021/12/21 09:37:32;;;;;;;17.53;8.60;;;0.00;99.90;;;;;;5008634;28;20525;-76
2021/12/21 09:40:01;;;;;;;17.07;9.20;;;0.30;99.90;;;;;;5009759;28;20462;-76
2021/12/21 09:42:29;;;;;;;15.67;8.90;;;0.70;99.90;;;;;;5011356;28;20508;-76
2021/12/21 09:44:58;;;;;;;15.27;8.50;;;1.10;99.90;;;;;;5009678;28;20474;-77
2021/12/21 09:47:26;;;;;;;21.60;8.80;;;1.50;99.90;;;;;;5010432;28;20548;-76
2021/12/21 09:49:55;;;;;;;17.23;9.17;;;1.80;99.90;;;;;;5010270;28;20550;-76
2021/12/21 09:52:24;;;;;;;15.93;9.87;;;2.10;99.90;;;;;;5010099;28;20512;-76
2021/12/21 09:54:51;;;;;;;14.53;8.67;;;2.40;99.90;;;;;;5007030;28;20517;-76
2021/12/21 09:57:18;;;;;;;14.90;8.60;;;2.60;99.90;;;;;;5008636;28;20459;-76
2021/12/21 09:59:47;;;;;;;24.97;9.30;;;2.90;99.90;;;;;;5010543;28;20469;-76
2021/12/21 10:02:15;;;;;;;18.73;9.30;;;3.20;99.90;;;;;;5006471;28;20870;-76
2021/12/21 10:04:47;;;;;;;21.60;8.80;;;3.50;99.90;;;;;;5009560;28;20470;-75
2021/12/21 10:07:15;;;;;;;15.20;8.87;;;3.70;99.90;;;;;;5006732;28;20565;-76
2021/12/21 10:09:43;;;;;;;13.20;9.07;;;3.80;99.90;;;;;;5008598;28;21131;-75
2021/12/21 10:12:14;;;;;;;20.97;10.17;;;3.90;99.90;;;;;;5007491;28;20454;-76
2021/12/21 10:14:40;;;;;;;20.07;8.70;;;4.00;99.90;;;;;;5004899;28;21304;-76
2021/12/21 10:17:10;;;;;;;17.43;9.63;;;4.00;99.90;;;;;;5007233;28;20450;-76
2021/12/21 10:19:37;;;;;;;18.20;9.43;;;4.20;99.90;;;;;;5009244;28;20454;-76
2021/12/21 10:22:13;;;;;;;17.47;9.77;;;4.40;99.90;;;;;;4999760;28;20450;-76
2021/12/21 10:24:49;;;;;;;16.10;8.40;;;4.70;99.90;;;;;;5008449;28;20484;-75
2021/12/21 10:27:19;;;;;;;16.07;8.60;;;4.80;99.90;;;;;;5012993;28;20488;-75
2021/12/21 10:29:47;;;;;;;14.77;8.80;;;5.00;99.90;;;;;;4998213;28;20466;-75
2021/12/21 10:32:19;;;;;;;21.40;9.97;;;5.00;99.90;;;;;;5008208;28;20935;-75
2021/12/21 10:34:58;;;;;;;17.30;9.37;;;5.10;99.90;;;;;;5005220;28;20474;-74
2021/12/21 10:37:28;;;;;;;15.43;8.53;;;5.20;99.90;;;;;;5013726;28;20465;-74
2021/12/21 10:40:20;;;;;;;16.10;8.93;;;5.20;99.90;;;;;;5009028;28;20459;-75
2021/12/21 10:42:49;;;;;;;17.37;9.73;;;5.00;99.90;;;;;;5002996;28;20970;-75
2021/12/21 10:45:17;;;;;;;14.17;9.20;;;5.10;99.90;;;;;;5012770;28;20474;-74
2021/12/21 10:47:46;;;;;;;22.10;9.43;;;5.30;99.90;;;;;;5013178;28;20896;-75
2021/12/21 10:50:14;;;;;;;23.43;10.00;;;5.20;99.90;;;;;;5012660;28;20981;-75
2021/12/21 10:52:42;;;;;;;15.27;9.00;;;5.30;99.90;;;;;;5012653;28;20517;-75
2021/12/21 10:55:09;;;;;;;22.87;9.27;;;5.40;99.90;;;;;;5012610;28;20552;-75
2021/12/21 10:57:37;;;;;;;13.03;8.20;;;5.70;99.90;;;;;;5011033;28;20504;-74
2021/12/21 11:00:09;;;;;;;19.30;10.23;;;5.80;99.90;;;;;;5000347;28;20488;-75
2021/12/21 11:02:36;;;;;;;14.73;8.40;;;6.00;99.90;;;;;;5006090;28;20447;-75
2021/12/21 11:05:06;;;;;;;14.80;9.17;;;6.00;99.90;;;;;;5005315;28;20470;-75
2021/12/21 11:07:38;;;;;;;17.70;9.40;;;5.90;99.90;;;;;;5001409;28;20501;-74
2021/12/21 11:10:12;;;;;;;19.23;8.90;;;6.10;99.90;;;;;;5011958;28;20569;-74
2021/12/21 11:12:45;;;;;;;19.97;7.87;;;6.10;99.90;;;;;;5011611;28;20856;-74
2021/12/21 11:15:14;;;;;;;19.90;9.43;;;6.30;99.90;;;;;;5011945;28;20466;-74
2021/12/21 11:17:41;;;;;;;26.33;8.90;;;6.30;99.90;;;;;;5011432;28;21012;-74
2021/12/21 11:20:10;;;;;;;22.37;9.10;;;6.30;99.90;;;;;;5012546;28;20508;-74
2021/12/21 11:22:40;;;;;;;19.10;8.50;;;6.20;99.90;;;;;;5013144;28;20625;-74
2021/12/21 11:25:08;;;;;;;18.30;9.27;;;6.00;99.90;;;;;;5005591;28;21142;-74
2021/12/21 11:27:37;;;;;;;13.90;8.83;;;6.00;99.90;;;;;;5010030;28;21002;-74
2021/12/21 11:30:08;;;;;;;13.07;8.20;;;6.00;99.90;;;;;;5011410;28;20466;-74
2021/12/21 11:32:39;;;;;;;15.30;8.37;;;5.90;99.90;;;;;;5012338;28;21016;-74
2021/12/21 11:37:53;;;;;;;13.17;8.40;;;6.10;99.90;;;;;;5011810;28;20430;-74
2021/12/21 11:40:22;;;;;;;20.90;8.60;;;6.30;99.90;;;;;;5007599;28;20888;-74
2021/12/21 11:43:00;;;;;;;11.97;7.33;;;6.60;99.90;;;;;;5009476;28;20454;-74
2021/12/21 11:45:31;;;;;;;16.40;8.47;;;6.60;99.90;;;;;;5011158;28;20558;-74
2021/12/21 11:48:04;;;;;;;13.37;8.57;;;6.70;99.90;;;;;;5009810;28;20478;-74
2021/12/21 11:50:31;;;;;;;15.57;8.13;;;6.70;99.90;;;;;;5012002;28;20454;-74
2021/12/21 11:53:04;;;;;;;13.43;8.30;;;6.80;99.90;;;;;;4999764;28;20467;-74
2021/12/21 11:55:32;;;;;;;15.13;7.83;;;7.10;99.90;;;;;;5000462;28;20478;-74
2021/12/21 11:58:13;;;;;;;13.17;8.40;;;7.40;99.90;;;;;;5003567;28;20456;-74
2021/12/21 12:00:48;;;;;;;12.90;8.00;;;7.50;99.90;;;;;;5010673;28;20528;-73
2021/12/21 12:03:20;;;;;;;9.37;7.10;;;7.70;99.90;;;;;;5011183;28;21301;-74
2021/12/21 12:05:56;;;;;;;16.37;7.57;;;7.80;99.90;;;;;;5011671;28;21038;-74
2021/12/21 12:08:24;;;;;;;10.47;7.13;;;7.70;99.90;;;;;;5011991;28;20481;-74
2021/12/21 12:10:54;;;;;;;11.93;7.73;;;7.70;99.90;;;;;;5012269;28;20458;-73
2021/12/21 12:13:28;;;;;;;17.83;6.50;;;7.90;99.90;;;;;;5007571;28;20443;-73
2021/12/21 12:15:59;;;;;;;10.90;7.17;;;8.10;99.90;;;;;;5003595;28;20477;-73
2021/12/21 12:18:28;;;;;;;11.77;7.40;;;8.20;99.90;;;;;;5012026;28;20493;-73
2021/12/21 12:20:55;;;;;;;14.10;7.40;;;8.30;99.90;;;;;;5012338;28;20461;-73
2021/12/21 12:23:22;;;;;;;10.33;7.30;;;8.30;99.90;;;;;;5008552;28;20546;-73
2021/12/21 12:25:53;;;;;;;13.50;7.20;;;8.30;99.90;;;;;;4992126;28;20471;-73
2021/12/21 12:28:24;;;;;;;18.33;7.67;;;8.40;99.90;;;;;;5001500;28;20482;-73
2021/12/21 12:30:52;;;;;;;11.67;7.57;;;8.50;99.90;;;;;;5011803;28;20458;-73
2021/12/21 12:33:20;;;;;;;12.37;6.90;;;8.50;99.90;;;;;;5012206;28;20512;-73
2021/12/21 12:35:47;;;;;;;16.70;6.60;;;8.30;99.90;;;;;;5011749;28;20541;-73
2021/12/21 12:38:20;;;;;;;12.10;6.87;;;8.30;99.90;;;;;;5030617;22;20503;-74
2021/12/21 12:40:50;;;;;;;10.80;6.63;;;8.30;99.90;;;;;;5004577;28;20470;-74
2021/12/21 12:43:20;;;;;;;10.50;7.30;;;8.30;99.90;;;;;;5000803;28;20453;-75
2021/12/21 12:45:51;;;;;;;13.30;6.07;;;8.40;99.90;;;;;;5000246;28;20865;-74
2021/12/21 12:48:22;;;;;;;9.67;6.50;;;8.50;99.90;;;;;;5007994;28;20492;-74
2021/12/21 12:50:50;;;;;;;11.00;6.83;;;8.60;99.90;;;;;;5009758;28;20490;-74
2021/12/21 12:53:17;;;;;;;9.97;5.83;;;8.70;99.90;;;;;;5012309;28;20446;-75
2021/12/21 12:55:48;;;;;;;9.57;5.20;;;8.80;99.90;;;;;;5012528;28;20890;-75
2021/12/21 12:58:20;;;;;;;13.40;5.50;;;8.70;99.90;;;;;;5012671;28;20540;-74
2021/12/21 13:00:55;;;;;;;7.93;4.70;;;8.80;99.90;;;;;;5009862;28;20455;-74
2021/12/21 13:03:32;;;;;;;6.97;4.50;;;8.60;99.90;;;;;;5009421;28;20446;-76
2021/12/21 13:06:00;;;;;;;7.40;4.97;;;8.60;99.90;;;;;;5010896;28;20950;-75
2021/12/21 13:08:28;;;;;;;6.30;4.03;;;8.40;99.90;;;;;;5014495;28;20485;-74
2021/12/21 13:10:58;;;;;;;6.67;4.13;;;8.40;99.90;;;;;;5014911;28;20462;-75
2021/12/21 13:13:33;;;;;;;10.87;4.90;;;8.30;99.90;;;;;;5014317;28;20454;-76
2021/12/21 13:16:05;;;;;;;6.37;4.17;;;8.20;99.90;;;;;;5012770;28;20438;-76
2021/12/21 13:18:41;;;;;;;7.20;4.40;;;8.10;99.90;;;;;;5016327;28;20502;-75
2021/12/21 13:21:20;;;;;;;6.27;3.53;;;8.00;99.90;;;;;;5013495;28;20453;-75
2021/12/21 13:23:49;;;;;;;9.70;5.00;;;7.90;99.90;;;;;;5013286;28;20466;-76
2021/12/21 13:26:18;;;;;;;9.57;5.50;;;7.80;99.90;;;;;;5011218;28;20466;-74
2021/12/21 13:28:49;;;;;;;7.90;5.20;;;7.70;99.90;;;;;;5013941;28;20512;-74